This is the latest recevied weather packets stored in our database for station/object EA4URC-13. If no packets are shown the sender has not sent any weather packets the latest 10 day(s).
| Time | Temp. | Humidity | Pressure | Rain* | Wind** | Luminosity | Snow |
|---|---|---|---|---|---|---|---|
| 1777472906 | 19.44° C | 38% | 998.9 hPa | - | - | - | - |
| 1777472001 | 19.44° C | 38% | 998.9 hPa | - | - | - | - |
| 1777471100 | 21.11° C | 37% | 998.4 hPa | - | - | - | - |
| 1777470191 | 20.56° C | 38% | 998.7 hPa | - | - | - | - |
| 1777469291 | 20.56° C | 39% | 998.9 hPa | - | - | - | - |
| 1777468388 | 20.56° C | 39% | 999 hPa | - | - | - | - |
| 1777467488 | 21.11° C | 38% | 998.9 hPa | - | - | - | - |
| 1777466579 | 20° C | 41% | 999.3 hPa | - | - | - | - |
| 1777465686 | 18.33° C | 43% | 1000 hPa | - | - | - | - |
| 1777464779 | 19.44° C | 43% | 999.7 hPa | - | - | - | - |
| 1777463879 | 19.44° C | 42% | 999.7 hPa | - | - | - | - |
| 1777462979 | 19.44° C | 44% | 1000.1 hPa | - | - | - | - |
| 1777462080 | 20° C | 42% | 1000 hPa | - | - | - | - |
| 1777461179 | 19.44° C | 44% | 1000.2 hPa | - | - | - | - |
| 1777460280 | 19.44° C | 45% | 1000.2 hPa | - | - | - | - |
| 1777459380 | 18.89° C | 45% | 1000.5 hPa | - | - | - | - |
| 1777458480 | 17.78° C | 47% | 1001.1 hPa | - | - | - | - |
| 1777457579 | 16.67° C | 49% | 1001.6 hPa | - | - | - | - |
| 1777456679 | 15.56° C | 52% | 1002 hPa | - | - | - | - |
| 1777455775 | 16.11° C | 51% | 1001.5 hPa | - | - | - | - |
| 1777454867 | 14.44° C | 56% | 1002.5 hPa | - | - | - | - |
| 1777453967 | 13.89° C | 57% | 1002.7 hPa | - | - | - | - |
| 1777453067 | 13.33° C | 56% | 1002.8 hPa | - | - | - | - |
| 1777452161 | 12.78° C | 56% | 1003.1 hPa | - | - | - | - |
| 1777451256 | 11.11° C | 60% | 1003.8 hPa | - | - | - | - |
* Rain since midnight (hover to see other rain measurements)
** Current wind speed in m/s (hover to see current wind gust speed)